sensor_id;sensor_type;location;lat;lon;timestamp;P1;durP1;ratioP1;P2;durP2;ratioP2
16579;SDS011;8402;51.466;6.806;2023-07-30T00:01:05;6.75;;;2.38;;
16579;SDS011;8402;51.466;6.806;2023-07-30T00:03:35;5.38;;;2.92;;
16579;SDS011;8402;51.466;6.806;2023-07-30T00:06:05;5.03;;;2.20;;
16579;SDS011;8402;51.466;6.806;2023-07-30T00:08:35;4.65;;;2.00;;
16579;SDS011;8402;51.466;6.806;2023-07-30T00:11:05;5.35;;;2.10;;
16579;SDS011;8402;51.466;6.806;2023-07-30T00:13:35;4.10;;;2.45;;
16579;SDS011;8402;51.466;6.806;2023-07-30T00:16:07;10.18;;;2.58;;
16579;SDS011;8402;51.466;6.806;2023-07-30T00:18:37;6.07;;;2.40;;
16579;SDS011;8402;51.466;6.806;2023-07-30T00:21:07;4.22;;;2.25;;
16579;SDS011;8402;51.466;6.806;2023-07-30T00:23:37;4.60;;;2.50;;
16579;SDS011;8402;51.466;6.806;2023-07-30T00:26:07;11.35;;;2.22;;
16579;SDS011;8402;51.466;6.806;2023-07-30T00:28:37;7.93;;;2.95;;
16579;SDS011;8402;51.466;6.806;2023-07-30T00:31:09;7.07;;;2.30;;
16579;SDS011;8402;51.466;6.806;2023-07-30T00:33:39;7.68;;;2.50;;
16579;SDS011;8402;51.466;6.806;2023-07-30T00:36:09;2.70;;;1.67;;
16579;SDS011;8402;51.466;6.806;2023-07-30T00:38:39;10.75;;;2.25;;
16579;SDS011;8402;51.466;6.806;2023-07-30T00:41:09;5.07;;;2.08;;
16579;SDS011;8402;51.466;6.806;2023-07-30T00:43:39;12.45;;;2.45;;
16579;SDS011;8402;51.466;6.806;2023-07-30T00:46:11;3.72;;;2.35;;
16579;SDS011;8402;51.466;6.806;2023-07-30T00:48:42;4.70;;;2.30;;
16579;SDS011;8402;51.466;6.806;2023-07-30T00:51:13;4.20;;;2.40;;
16579;SDS011;8402;51.466;6.806;2023-07-30T00:53:44;6.55;;;2.17;;
16579;SDS011;8402;51.466;6.806;2023-07-30T00:56:14;7.53;;;2.45;;
16579;SDS011;8402;51.466;6.806;2023-07-30T00:58:45;6.18;;;2.40;;
16579;SDS011;8402;51.466;6.806;2023-07-30T01:01:20;7.50;;;2.25;;
16579;SDS011;8402;51.466;6.806;2023-07-30T01:03:50;7.35;;;2.47;;
16579;SDS011;8402;51.466;6.806;2023-07-30T01:06:20;8.20;;;2.33;;
16579;SDS011;8402;51.466;6.806;2023-07-30T01:08:50;3.65;;;2.30;;
16579;SDS011;8402;51.466;6.806;2023-07-30T01:11:20;6.32;;;2.35;;
16579;SDS011;8402;51.466;6.806;2023-07-30T01:13:50;7.63;;;2.25;;
16579;SDS011;8402;51.466;6.806;2023-07-30T01:16:23;5.45;;;2.22;;
16579;SDS011;8402;51.466;6.806;2023-07-30T01:18:53;3.28;;;2.22;;
16579;SDS011;8402;51.466;6.806;2023-07-30T01:21:28;7.22;;;2.50;;
16579;SDS011;8402;51.466;6.806;2023-07-30T01:23:58;4.70;;;2.40;;
16579;SDS011;8402;51.466;6.806;2023-07-30T01:26:30;5.43;;;2.08;;
16579;SDS011;8402;51.466;6.806;2023-07-30T01:29:05;8.20;;;2.50;;
16579;SDS011;8402;51.466;6.806;2023-07-30T01:31:39;7.07;;;2.50;;
16579;SDS011;8402;51.466;6.806;2023-07-30T01:34:10;6.00;;;2.50;;
16579;SDS011;8402;51.466;6.806;2023-07-30T01:36:43;5.93;;;2.30;;
16579;SDS011;8402;51.466;6.806;2023-07-30T01:39:14;7.28;;;2.58;;
16579;SDS011;8402;51.466;6.806;2023-07-30T01:41:46;8.25;;;2.70;;
16579;SDS011;8402;51.466;6.806;2023-07-30T01:44:15;8.50;;;2.63;;
16579;SDS011;8402;51.466;6.806;2023-07-30T01:46:45;4.78;;;2.25;;
16579;SDS011;8402;51.466;6.806;2023-07-30T01:49:15;4.60;;;2.28;;
16579;SDS011;8402;51.466;6.806;2023-07-30T01:51:48;7.05;;;2.55;;
16579;SDS011;8402;51.466;6.806;2023-07-30T01:54:18;5.00;;;2.63;;
16579;SDS011;8402;51.466;6.806;2023-07-30T01:56:48;3.67;;;2.05;;
16579;SDS011;8402;51.466;6.806;2023-07-30T01:59:18;5.20;;;2.43;;
16579;SDS011;8402;51.466;6.806;2023-07-30T02:01:47;6.27;;;2.47;;
16579;SDS011;8402;51.466;6.806;2023-07-30T02:04:17;6.30;;;2.37;;
16579;SDS011;8402;51.466;6.806;2023-07-30T02:06:50;6.57;;;2.50;;
16579;SDS011;8402;51.466;6.806;2023-07-30T02:09:20;6.00;;;2.63;;
16579;SDS011;8402;51.466;6.806;2023-07-30T02:11:50;7.60;;;2.47;;
16579;SDS011;8402;51.466;6.806;2023-07-30T02:14:20;4.07;;;2.40;;
16579;SDS011;8402;51.466;6.806;2023-07-30T02:16:50;7.40;;;2.70;;
16579;SDS011;8402;51.466;6.806;2023-07-30T02:19:20;7.13;;;2.70;;
16579;SDS011;8402;51.466;6.806;2023-07-30T02:21:52;7.37;;;2.63;;
16579;SDS011;8402;51.466;6.806;2023-07-30T02:24:22;4.03;;;2.43;;
16579;SDS011;8402;51.466;6.806;2023-07-30T02:26:52;9.10;;;3.10;;
16579;SDS011;8402;51.466;6.806;2023-07-30T02:29:22;5.97;;;2.50;;
16579;SDS011;8402;51.466;6.806;2023-07-30T02:31:52;9.87;;;2.80;;
16579;SDS011;8402;51.466;6.806;2023-07-30T02:34:22;9.13;;;3.13;;
16579;SDS011;8402;51.466;6.806;2023-07-30T02:36:54;7.90;;;2.50;;
16579;SDS011;8402;51.466;6.806;2023-07-30T02:39:24;8.03;;;3.10;;
16579;SDS011;8402;51.466;6.806;2023-07-30T02:41:54;9.97;;;3.23;;
16579;SDS011;8402;51.466;6.806;2023-07-30T02:44:24;10.63;;;2.60;;
16579;SDS011;8402;51.466;6.806;2023-07-30T02:46:54;5.00;;;2.63;;
16579;SDS011;8402;51.466;6.806;2023-07-30T02:49:24;9.07;;;3.00;;
16579;SDS011;8402;51.466;6.806;2023-07-30T02:51:56;6.80;;;2.80;;
16579;SDS011;8402;51.466;6.806;2023-07-30T02:54:26;5.90;;;2.80;;
16579;SDS011;8402;51.466;6.806;2023-07-30T02:56:56;7.67;;;2.60;;
16579;SDS011;8402;51.466;6.806;2023-07-30T02:59:26;5.23;;;2.60;;
16579;SDS011;8402;51.466;6.806;2023-07-30T03:01:57;6.00;;;3.00;;
16579;SDS011;8402;51.466;6.806;2023-07-30T03:04:26;9.70;;;3.07;;
16579;SDS011;8402;51.466;6.806;2023-07-30T03:06:59;6.00;;;2.97;;
16579;SDS011;8402;51.466;6.806;2023-07-30T03:09:29;5.90;;;3.00;;
16579;SDS011;8402;51.466;6.806;2023-07-30T03:11:59;6.70;;;2.70;;
16579;SDS011;8402;51.466;6.806;2023-07-30T03:14:29;5.57;;;2.70;;
16579;SDS011;8402;51.466;6.806;2023-07-30T03:16:59;7.10;;;2.77;;
16579;SDS011;8402;51.466;6.806;2023-07-30T03:19:29;5.83;;;2.90;;
16579;SDS011;8402;51.466;6.806;2023-07-30T03:22:01;5.43;;;3.20;;
16579;SDS011;8402;51.466;6.806;2023-07-30T03:24:31;9.20;;;2.60;;
16579;SDS011;8402;51.466;6.806;2023-07-30T03:27:01;10.43;;;2.77;;
16579;SDS011;8402;51.466;6.806;2023-07-30T03:29:31;7.83;;;2.67;;
16579;SDS011;8402;51.466;6.806;2023-07-30T03:32:01;6.07;;;2.40;;
16579;SDS011;8402;51.466;6.806;2023-07-30T03:34:31;8.20;;;2.70;;
16579;SDS011;8402;51.466;6.806;2023-07-30T03:37:04;7.67;;;2.47;;
16579;SDS011;8402;51.466;6.806;2023-07-30T03:39:34;5.53;;;2.30;;
16579;SDS011;8402;51.466;6.806;2023-07-30T03:42:04;7.23;;;2.77;;
16579;SDS011;8402;51.466;6.806;2023-07-30T03:44:34;5.77;;;2.67;;
16579;SDS011;8402;51.466;6.806;2023-07-30T03:47:04;5.53;;;2.63;;
16579;SDS011;8402;51.466;6.806;2023-07-30T03:49:34;8.57;;;2.60;;
16579;SDS011;8402;51.466;6.806;2023-07-30T03:52:07;6.97;;;2.73;;
16579;SDS011;8402;51.466;6.806;2023-07-30T03:54:37;10.17;;;2.83;;
16579;SDS011;8402;51.466;6.806;2023-07-30T03:57:06;9.53;;;2.90;;
16579;SDS011;8402;51.466;6.806;2023-07-30T03:59:36;6.90;;;2.93;;
16579;SDS011;8402;51.466;6.806;2023-07-30T04:02:06;10.87;;;3.10;;
16579;SDS011;8402;51.466;6.806;2023-07-30T04:04:37;7.60;;;2.97;;
16579;SDS011;8402;51.466;6.806;2023-07-30T04:07:09;10.77;;;3.43;;
16579;SDS011;8402;51.466;6.806;2023-07-30T04:09:39;8.33;;;2.80;;
16579;SDS011;8402;51.466;6.806;2023-07-30T04:12:09;8.10;;;3.13;;
16579;SDS011;8402;51.466;6.806;2023-07-30T04:14:39;10.00;;;3.20;;
16579;SDS011;8402;51.466;6.806;2023-07-30T04:17:08;8.83;;;3.30;;
16579;SDS011;8402;51.466;6.806;2023-07-30T04:19:40;8.23;;;3.00;;
16579;SDS011;8402;51.466;6.806;2023-07-30T04:22:13;7.47;;;2.90;;
16579;SDS011;8402;51.466;6.806;2023-07-30T04:24:42;8.00;;;2.70;;
16579;SDS011;8402;51.466;6.806;2023-07-30T04:27:12;12.07;;;3.30;;
16579;SDS011;8402;51.466;6.806;2023-07-30T04:29:42;8.53;;;2.93;;
16579;SDS011;8402;51.466;6.806;2023-07-30T04:32:12;8.77;;;2.83;;
16579;SDS011;8402;51.466;6.806;2023-07-30T04:34:42;7.63;;;2.90;;
16579;SDS011;8402;51.466;6.806;2023-07-30T04:37:14;7.73;;;3.00;;
16579;SDS011;8402;51.466;6.806;2023-07-30T04:39:44;5.50;;;2.93;;
16579;SDS011;8402;51.466;6.806;2023-07-30T04:42:14;8.40;;;2.83;;
16579;SDS011;8402;51.466;6.806;2023-07-30T04:44:44;9.77;;;3.10;;
16579;SDS011;8402;51.466;6.806;2023-07-30T04:47:14;6.37;;;2.90;;
16579;SDS011;8402;51.466;6.806;2023-07-30T04:49:44;6.77;;;2.80;;
16579;SDS011;8402;51.466;6.806;2023-07-30T04:52:16;11.20;;;3.40;;
16579;SDS011;8402;51.466;6.806;2023-07-30T04:54:48;6.13;;;2.73;;
16579;SDS011;8402;51.466;6.806;2023-07-30T04:57:17;8.67;;;3.53;;
16579;SDS011;8402;51.466;6.806;2023-07-30T04:59:47;15.63;;;3.50;;
16579;SDS011;8402;51.466;6.806;2023-07-30T05:02:17;9.63;;;3.30;;
16579;SDS011;8402;51.466;6.806;2023-07-30T05:04:47;11.43;;;3.30;;
16579;SDS011;8402;51.466;6.806;2023-07-30T05:07:20;9.63;;;3.33;;
16579;SDS011;8402;51.466;6.806;2023-07-30T05:09:50;11.67;;;3.50;;
16579;SDS011;8402;51.466;6.806;2023-07-30T05:12:19;14.00;;;4.27;;
16579;SDS011;8402;51.466;6.806;2023-07-30T05:14:49;9.43;;;3.10;;
16579;SDS011;8402;51.466;6.806;2023-07-30T05:17:19;12.00;;;3.30;;
16579;SDS011;8402;51.466;6.806;2023-07-30T05:19:49;11.77;;;3.23;;
16579;SDS011;8402;51.466;6.806;2023-07-30T05:22:21;11.90;;;2.70;;
16579;SDS011;8402;51.466;6.806;2023-07-30T05:24:51;9.40;;;3.43;;
16579;SDS011;8402;51.466;6.806;2023-07-30T05:27:21;8.70;;;2.67;;
16579;SDS011;8402;51.466;6.806;2023-07-30T05:29:51;9.93;;;3.27;;
16579;SDS011;8402;51.466;6.806;2023-07-30T05:32:21;9.27;;;3.07;;
16579;SDS011;8402;51.466;6.806;2023-07-30T05:34:51;9.00;;;2.90;;
16579;SDS011;8402;51.466;6.806;2023-07-30T05:37:23;9.83;;;3.00;;
16579;SDS011;8402;51.466;6.806;2023-07-30T05:39:53;11.50;;;2.93;;
16579;SDS011;8402;51.466;6.806;2023-07-30T05:42:24;12.27;;;3.23;;
16579;SDS011;8402;51.466;6.806;2023-07-30T05:44:55;8.80;;;2.70;;
16579;SDS011;8402;51.466;6.806;2023-07-30T05:47:34;6.93;;;2.93;;
16579;SDS011;8402;51.466;6.806;2023-07-30T05:50:05;7.57;;;2.90;;
16579;SDS011;8402;51.466;6.806;2023-07-30T05:52:38;8.20;;;2.90;;
16579;SDS011;8402;51.466;6.806;2023-07-30T05:55:08;11.23;;;3.57;;
16579;SDS011;8402;51.466;6.806;2023-07-30T05:57:38;10.90;;;3.87;;
16579;SDS011;8402;51.466;6.806;2023-07-30T06:00:09;8.20;;;2.80;;
16579;SDS011;8402;51.466;6.806;2023-07-30T06:02:39;13.10;;;3.37;;
16579;SDS011;8402;51.466;6.806;2023-07-30T06:05:09;8.57;;;2.83;;
16579;SDS011;8402;51.466;6.806;2023-07-30T06:07:41;8.20;;;2.93;;
16579;SDS011;8402;51.466;6.806;2023-07-30T06:10:11;8.43;;;2.53;;
16579;SDS011;8402;51.466;6.806;2023-07-30T06:12:41;8.60;;;3.10;;
16579;SDS011;8402;51.466;6.806;2023-07-30T06:15:11;10.13;;;3.03;;
16579;SDS011;8402;51.466;6.806;2023-07-30T06:17:41;12.27;;;3.03;;
16579;SDS011;8402;51.466;6.806;2023-07-30T06:20:11;8.90;;;2.90;;
16579;SDS011;8402;51.466;6.806;2023-07-30T06:22:44;10.83;;;3.40;;
16579;SDS011;8402;51.466;6.806;2023-07-30T06:25:14;9.03;;;2.93;;
16579;SDS011;8402;51.466;6.806;2023-07-30T06:27:44;6.83;;;2.40;;
16579;SDS011;8402;51.466;6.806;2023-07-30T06:30:14;8.00;;;2.37;;
16579;SDS011;8402;51.466;6.806;2023-07-30T06:32:44;9.77;;;2.80;;
16579;SDS011;8402;51.466;6.806;2023-07-30T06:35:14;11.43;;;3.00;;
16579;SDS011;8402;51.466;6.806;2023-07-30T06:37:46;11.30;;;2.60;;
16579;SDS011;8402;51.466;6.806;2023-07-30T06:40:16;9.13;;;2.67;;
16579;SDS011;8402;51.466;6.806;2023-07-30T06:42:46;14.33;;;2.73;;
16579;SDS011;8402;51.466;6.806;2023-07-30T06:45:16;5.83;;;2.57;;
16579;SDS011;8402;51.466;6.806;2023-07-30T06:47:46;13.77;;;2.67;;
16579;SDS011;8402;51.466;6.806;2023-07-30T06:50:16;11.57;;;2.40;;
16579;SDS011;8402;51.466;6.806;2023-07-30T06:52:48;6.43;;;2.30;;
16579;SDS011;8402;51.466;6.806;2023-07-30T06:55:18;5.33;;;1.97;;
16579;SDS011;8402;51.466;6.806;2023-07-30T06:57:48;8.87;;;2.60;;
16579;SDS011;8402;51.466;6.806;2023-07-30T07:00:18;7.20;;;2.40;;
16579;SDS011;8402;51.466;6.806;2023-07-30T07:02:48;8.57;;;2.27;;
16579;SDS011;8402;51.466;6.806;2023-07-30T07:05:19;5.67;;;2.30;;
16579;SDS011;8402;51.466;6.806;2023-07-30T07:07:51;8.83;;;2.37;;
16579;SDS011;8402;51.466;6.806;2023-07-30T07:10:21;9.55;;;2.22;;
16579;SDS011;8402;51.466;6.806;2023-07-30T07:12:51;10.60;;;2.70;;
16579;SDS011;8402;51.466;6.806;2023-07-30T07:15:21;6.20;;;2.00;;
16579;SDS011;8402;51.466;6.806;2023-07-30T07:17:51;7.35;;;2.20;;
16579;SDS011;8402;51.466;6.806;2023-07-30T07:20:21;7.82;;;2.30;;
16579;SDS011;8402;51.466;6.806;2023-07-30T07:22:53;9.13;;;2.53;;
16579;SDS011;8402;51.466;6.806;2023-07-30T07:25:23;9.48;;;2.72;;
16579;SDS011;8402;51.466;6.806;2023-07-30T07:27:53;9.33;;;2.67;;
16579;SDS011;8402;51.466;6.806;2023-07-30T07:30:23;8.53;;;2.53;;
16579;SDS011;8402;51.466;6.806;2023-07-30T07:32:53;10.25;;;2.58;;
16579;SDS011;8402;51.466;6.806;2023-07-30T07:35:26;8.97;;;2.67;;
16579;SDS011;8402;51.466;6.806;2023-07-30T07:38:01;7.80;;;2.30;;
16579;SDS011;8402;51.466;6.806;2023-07-30T07:40:35;7.90;;;2.23;;
16579;SDS011;8402;51.466;6.806;2023-07-30T07:43:06;9.77;;;2.33;;
16579;SDS011;8402;51.466;6.806;2023-07-30T07:45:35;11.73;;;2.90;;
16579;SDS011;8402;51.466;6.806;2023-07-30T07:48:05;11.30;;;2.70;;
16579;SDS011;8402;51.466;6.806;2023-07-30T07:50:35;7.43;;;2.88;;
16579;SDS011;8402;51.466;6.806;2023-07-30T07:53:08;11.27;;;3.05;;
16579;SDS011;8402;51.466;6.806;2023-07-30T07:55:38;7.15;;;2.70;;
16579;SDS011;8402;51.466;6.806;2023-07-30T07:58:08;10.32;;;2.95;;
16579;SDS011;8402;51.466;6.806;2023-07-30T08:00:38;9.40;;;2.97;;
16579;SDS011;8402;51.466;6.806;2023-07-30T08:03:07;11.65;;;2.90;;
16579;SDS011;8402;51.466;6.806;2023-07-30T08:05:37;8.57;;;2.78;;
16579;SDS011;8402;51.466;6.806;2023-07-30T08:08:10;9.05;;;2.83;;
16579;SDS011;8402;51.466;6.806;2023-07-30T08:10:40;9.55;;;3.08;;
16579;SDS011;8402;51.466;6.806;2023-07-30T08:13:12;11.57;;;2.75;;
16579;SDS011;8402;51.466;6.806;2023-07-30T08:15:43;10.73;;;2.80;;
16579;SDS011;8402;51.466;6.806;2023-07-30T08:18:13;10.45;;;3.25;;
16579;SDS011;8402;51.466;6.806;2023-07-30T08:20:43;9.18;;;2.90;;
16579;SDS011;8402;51.466;6.806;2023-07-30T08:23:16;10.15;;;3.35;;
16579;SDS011;8402;51.466;6.806;2023-07-30T08:25:46;8.15;;;2.75;;
16579;SDS011;8402;51.466;6.806;2023-07-30T08:28:17;12.13;;;3.22;;
16579;SDS011;8402;51.466;6.806;2023-07-30T08:30:47;7.20;;;2.60;;
16579;SDS011;8402;51.466;6.806;2023-07-30T08:33:17;12.57;;;2.78;;
16579;SDS011;8402;51.466;6.806;2023-07-30T08:35:46;9.73;;;2.60;;
16579;SDS011;8402;51.466;6.806;2023-07-30T08:38:19;8.80;;;2.67;;
16579;SDS011;8402;51.466;6.806;2023-07-30T08:40:49;12.25;;;3.25;;
16579;SDS011;8402;51.466;6.806;2023-07-30T08:43:19;7.75;;;2.72;;
16579;SDS011;8402;51.466;6.806;2023-07-30T08:45:49;13.13;;;3.30;;
16579;SDS011;8402;51.466;6.806;2023-07-30T08:48:19;10.73;;;3.25;;
16579;SDS011;8402;51.466;6.806;2023-07-30T08:50:49;10.57;;;3.25;;
16579;SDS011;8402;51.466;6.806;2023-07-30T08:53:22;7.45;;;2.30;;
16579;SDS011;8402;51.466;6.806;2023-07-30T08:55:53;11.05;;;2.65;;
16579;SDS011;8402;51.466;6.806;2023-07-30T08:58:25;10.60;;;2.90;;
16579;SDS011;8402;51.466;6.806;2023-07-30T09:00:55;8.35;;;2.42;;
16579;SDS011;8402;51.466;6.806;2023-07-30T09:03:27;8.65;;;2.30;;
16579;SDS011;8402;51.466;6.806;2023-07-30T09:05:58;12.15;;;2.67;;
16579;SDS011;8402;51.466;6.806;2023-07-30T09:08:31;6.88;;;2.53;;
16579;SDS011;8402;51.466;6.806;2023-07-30T09:11:10;8.65;;;2.88;;
16579;SDS011;8402;51.466;6.806;2023-07-30T09:13:41;13.32;;;2.75;;
16579;SDS011;8402;51.466;6.806;2023-07-30T09:16:12;14.52;;;3.42;;
16579;SDS011;8402;51.466;6.806;2023-07-30T09:18:44;9.63;;;2.70;;
16579;SDS011;8402;51.466;6.806;2023-07-30T09:21:17;7.78;;;2.35;;
16579;SDS011;8402;51.466;6.806;2023-07-30T09:23:50;13.68;;;3.17;;
16579;SDS011;8402;51.466;6.806;2023-07-30T09:26:20;8.32;;;2.95;;
16579;SDS011;8402;51.466;6.806;2023-07-30T09:28:48;8.80;;;2.47;;
16579;SDS011;8402;51.466;6.806;2023-07-30T09:31:18;7.43;;;2.15;;
16579;SDS011;8402;51.466;6.806;2023-07-30T09:33:48;9.40;;;2.25;;
16579;SDS011;8402;51.466;6.806;2023-07-30T09:36:18;7.85;;;2.30;;
16579;SDS011;8402;51.466;6.806;2023-07-30T09:38:51;12.82;;;2.08;;
16579;SDS011;8402;51.466;6.806;2023-07-30T09:41:21;8.63;;;2.20;;
16579;SDS011;8402;51.466;6.806;2023-07-30T09:43:57;7.43;;;1.98;;
16579;SDS011;8402;51.466;6.806;2023-07-30T09:46:28;8.80;;;2.22;;
16579;SDS011;8402;51.466;6.806;2023-07-30T09:48:59;9.48;;;1.85;;
16579;SDS011;8402;51.466;6.806;2023-07-30T09:51:31;5.05;;;2.00;;
16579;SDS011;8402;51.466;6.806;2023-07-30T09:54:04;6.90;;;1.85;;
16579;SDS011;8402;51.466;6.806;2023-07-30T09:56:36;13.35;;;2.30;;
16579;SDS011;8402;51.466;6.806;2023-07-30T09:59:07;10.45;;;2.15;;
16579;SDS011;8402;51.466;6.806;2023-07-30T10:01:39;6.93;;;1.90;;
16579;SDS011;8402;51.466;6.806;2023-07-30T10:04:12;8.23;;;2.10;;
16579;SDS011;8402;51.466;6.806;2023-07-30T10:06:44;8.45;;;2.00;;
16579;SDS011;8402;51.466;6.806;2023-07-30T10:09:21;6.53;;;1.92;;
16579;SDS011;8402;51.466;6.806;2023-07-30T10:11:54;5.82;;;1.90;;
16579;SDS011;8402;51.466;6.806;2023-07-30T10:14:25;5.78;;;2.20;;
16579;SDS011;8402;51.466;6.806;2023-07-30T10:16:55;8.95;;;2.17;;
16579;SDS011;8402;51.466;6.806;2023-07-30T10:19:28;8.32;;;2.05;;
16579;SDS011;8402;51.466;6.806;2023-07-30T10:24:58;6.70;;;2.08;;
16579;SDS011;8402;51.466;6.806;2023-07-30T10:27:35;11.10;;;2.03;;
16579;SDS011;8402;51.466;6.806;2023-07-30T10:30:09;6.60;;;1.77;;
16579;SDS011;8402;51.466;6.806;2023-07-30T10:32:40;7.30;;;1.83;;
16579;SDS011;8402;51.466;6.806;2023-07-30T10:35:13;8.75;;;2.00;;
16579;SDS011;8402;51.466;6.806;2023-07-30T10:38:14;8.32;;;1.65;;
16579;SDS011;8402;51.466;6.806;2023-07-30T10:43:39;10.70;;;1.73;;
16579;SDS011;8402;51.466;6.806;2023-07-30T10:46:13;9.45;;;1.42;;
16579;SDS011;8402;51.466;6.806;2023-07-30T10:48:46;6.50;;;1.70;;
16579;SDS011;8402;51.466;6.806;2023-07-30T10:51:17;8.95;;;1.90;;
16579;SDS011;8402;51.466;6.806;2023-07-30T10:53:50;6.65;;;1.50;;
16579;SDS011;8402;51.466;6.806;2023-07-30T10:56:23;5.63;;;1.63;;
16579;SDS011;8402;51.466;6.806;2023-07-30T10:58:54;6.50;;;1.67;;
16579;SDS011;8402;51.466;6.806;2023-07-30T11:01:24;4.13;;;1.48;;
16579;SDS011;8402;51.466;6.806;2023-07-30T11:03:56;6.32;;;1.42;;
16579;SDS011;8402;51.466;6.806;2023-07-30T11:06:26;6.10;;;1.48;;
16579;SDS011;8402;51.466;6.806;2023-07-30T11:08:56;5.28;;;1.60;;
16579;SDS011;8402;51.466;6.806;2023-07-30T11:11:29;6.40;;;1.85;;
16579;SDS011;8402;51.466;6.806;2023-07-30T11:13:59;3.28;;;1.50;;
16579;SDS011;8402;51.466;6.806;2023-07-30T11:16:30;5.10;;;1.48;;
16579;SDS011;8402;51.466;6.806;2023-07-30T11:19:02;4.63;;;1.40;;
16579;SDS011;8402;51.466;6.806;2023-07-30T11:21:43;5.15;;;1.92;;
16579;SDS011;8402;51.466;6.806;2023-07-30T11:24:16;4.63;;;1.45;;
16579;SDS011;8402;51.466;6.806;2023-07-30T11:26:59;4.80;;;1.58;;
16579;SDS011;8402;51.466;6.806;2023-07-30T11:29:29;6.38;;;1.58;;
16579;SDS011;8402;51.466;6.806;2023-07-30T11:31:59;5.70;;;1.58;;
16579;SDS011;8402;51.466;6.806;2023-07-30T11:34:30;6.30;;;1.42;;
16579;SDS011;8402;51.466;6.806;2023-07-30T11:37:05;5.95;;;1.92;;
16579;SDS011;8402;51.466;6.806;2023-07-30T11:39:36;5.80;;;1.60;;
16579;SDS011;8402;51.466;6.806;2023-07-30T11:42:11;9.13;;;1.92;;
16579;SDS011;8402;51.466;6.806;2023-07-30T11:44:42;4.70;;;1.23;;
16579;SDS011;8402;51.466;6.806;2023-07-30T11:47:13;4.20;;;1.52;;
16579;SDS011;8402;51.466;6.806;2023-07-30T11:49:56;5.97;;;1.52;;
16579;SDS011;8402;51.466;6.806;2023-07-30T11:52:26;8.35;;;1.40;;
16579;SDS011;8402;51.466;6.806;2023-07-30T11:54:59;9.75;;;1.60;;
16579;SDS011;8402;51.466;6.806;2023-07-30T11:57:36;11.13;;;1.83;;
16579;SDS011;8402;51.466;6.806;2023-07-30T12:00:06;4.07;;;1.20;;
16579;SDS011;8402;51.466;6.806;2023-07-30T12:02:38;6.53;;;1.27;;
16579;SDS011;8402;51.466;6.806;2023-07-30T12:05:09;6.18;;;1.90;;
16579;SDS011;8402;51.466;6.806;2023-07-30T12:07:40;6.70;;;1.30;;
16579;SDS011;8402;51.466;6.806;2023-07-30T12:10:11;8.18;;;1.77;;
16579;SDS011;8402;51.466;6.806;2023-07-30T12:12:49;5.80;;;1.60;;
16579;SDS011;8402;51.466;6.806;2023-07-30T12:15:21;6.05;;;1.38;;
16579;SDS011;8402;51.466;6.806;2023-07-30T12:17:52;6.90;;;1.58;;
16579;SDS011;8402;51.466;6.806;2023-07-30T12:20:22;7.28;;;1.58;;
16579;SDS011;8402;51.466;6.806;2023-07-30T12:22:56;5.32;;;1.30;;
16579;SDS011;8402;51.466;6.806;2023-07-30T12:25:26;6.88;;;1.65;;
16579;SDS011;8402;51.466;6.806;2023-07-30T12:27:59;2.80;;;1.02;;
16579;SDS011;8402;51.466;6.806;2023-07-30T12:30:29;3.08;;;1.20;;
16579;SDS011;8402;51.466;6.806;2023-07-30T12:32:59;2.97;;;1.08;;
16579;SDS011;8402;51.466;6.806;2023-07-30T12:35:29;4.45;;;1.00;;
16579;SDS011;8402;51.466;6.806;2023-07-30T12:37:59;6.38;;;1.10;;
16579;SDS011;8402;51.466;6.806;2023-07-30T12:40:30;5.80;;;2.00;;
16579;SDS011;8402;51.466;6.806;2023-07-30T12:43:03;4.80;;;1.27;;
16579;SDS011;8402;51.466;6.806;2023-07-30T12:45:33;4.03;;;1.00;;
16579;SDS011;8402;51.466;6.806;2023-07-30T12:48:03;2.90;;;0.80;;
16579;SDS011;8402;51.466;6.806;2023-07-30T12:50:34;5.82;;;1.80;;
16579;SDS011;8402;51.466;6.806;2023-07-30T12:53:04;6.43;;;1.00;;
16579;SDS011;8402;51.466;6.806;2023-07-30T12:55:34;3.92;;;1.17;;
16579;SDS011;8402;51.466;6.806;2023-07-30T12:58:07;5.93;;;1.10;;
16579;SDS011;8402;51.466;6.806;2023-07-30T13:00:38;5.97;;;1.65;;
16579;SDS011;8402;51.466;6.806;2023-07-30T13:03:08;2.83;;;1.23;;
16579;SDS011;8402;51.466;6.806;2023-07-30T13:05:37;7.68;;;1.70;;
16579;SDS011;8402;51.466;6.806;2023-07-30T13:08:07;4.75;;;1.20;;
16579;SDS011;8402;51.466;6.806;2023-07-30T13:10:37;3.53;;;1.00;;
16579;SDS011;8402;51.466;6.806;2023-07-30T13:13:10;2.50;;;1.00;;
16579;SDS011;8402;51.466;6.806;2023-07-30T13:15:39;3.13;;;1.38;;
16579;SDS011;8402;51.466;6.806;2023-07-30T13:18:09;4.28;;;1.10;;
16579;SDS011;8402;51.466;6.806;2023-07-30T13:20:39;4.90;;;1.20;;
16579;SDS011;8402;51.466;6.806;2023-07-30T13:23:09;3.67;;;1.10;;
16579;SDS011;8402;51.466;6.806;2023-07-30T13:25:39;3.80;;;1.40;;
16579;SDS011;8402;51.466;6.806;2023-07-30T13:28:11;6.15;;;1.83;;
16579;SDS011;8402;51.466;6.806;2023-07-30T13:30:41;4.97;;;1.40;;
16579;SDS011;8402;51.466;6.806;2023-07-30T13:33:11;5.93;;;1.48;;
16579;SDS011;8402;51.466;6.806;2023-07-30T13:35:41;5.28;;;1.40;;
16579;SDS011;8402;51.466;6.806;2023-07-30T13:38:11;4.53;;;1.60;;
16579;SDS011;8402;51.466;6.806;2023-07-30T13:40:41;4.65;;;1.30;;
16579;SDS011;8402;51.466;6.806;2023-07-30T13:43:16;4.68;;;1.30;;
16579;SDS011;8402;51.466;6.806;2023-07-30T13:45:49;5.88;;;1.40;;
16579;SDS011;8402;51.466;6.806;2023-07-30T13:48:19;6.32;;;1.67;;
16579;SDS011;8402;51.466;6.806;2023-07-30T13:50:49;4.55;;;1.40;;
16579;SDS011;8402;51.466;6.806;2023-07-30T13:53:19;4.82;;;2.00;;
16579;SDS011;8402;51.466;6.806;2023-07-30T13:55:49;3.80;;;1.30;;
16579;SDS011;8402;51.466;6.806;2023-07-30T13:58:22;7.45;;;1.50;;
16579;SDS011;8402;51.466;6.806;2023-07-30T14:00:53;3.20;;;1.13;;
16579;SDS011;8402;51.466;6.806;2023-07-30T14:03:23;7.13;;;1.83;;
16579;SDS011;8402;51.466;6.806;2023-07-30T14:05:53;4.32;;;1.65;;
16579;SDS011;8402;51.466;6.806;2023-07-30T14:08:23;6.53;;;1.48;;
16579;SDS011;8402;51.466;6.806;2023-07-30T14:10:53;8.27;;;1.45;;
16579;SDS011;8402;51.466;6.806;2023-07-30T14:13:26;6.38;;;1.77;;
16579;SDS011;8402;51.466;6.806;2023-07-30T14:15:56;3.75;;;1.60;;
16579;SDS011;8402;51.466;6.806;2023-07-30T14:18:26;3.65;;;1.50;;
16579;SDS011;8402;51.466;6.806;2023-07-30T14:20:56;7.15;;;1.70;;
16579;SDS011;8402;51.466;6.806;2023-07-30T14:23:26;4.85;;;1.80;;
16579;SDS011;8402;51.466;6.806;2023-07-30T14:25:56;5.25;;;1.40;;
16579;SDS011;8402;51.466;6.806;2023-07-30T14:28:30;6.57;;;1.60;;
16579;SDS011;8402;51.466;6.806;2023-07-30T14:31:00;5.28;;;1.60;;
16579;SDS011;8402;51.466;6.806;2023-07-30T14:33:30;6.40;;;1.52;;
16579;SDS011;8402;51.466;6.806;2023-07-30T14:36:00;5.40;;;1.73;;
16579;SDS011;8402;51.466;6.806;2023-07-30T14:38:30;4.78;;;1.55;;
16579;SDS011;8402;51.466;6.806;2023-07-30T14:41:00;3.67;;;1.40;;
16579;SDS011;8402;51.466;6.806;2023-07-30T14:43:35;5.45;;;1.50;;
16579;SDS011;8402;51.466;6.806;2023-07-30T14:46:04;4.07;;;1.50;;
16579;SDS011;8402;51.466;6.806;2023-07-30T14:48:40;4.38;;;1.60;;
16579;SDS011;8402;51.466;6.806;2023-07-30T14:51:10;4.18;;;1.65;;
16579;SDS011;8402;51.466;6.806;2023-07-30T14:53:40;7.43;;;1.60;;
16579;SDS011;8402;51.466;6.806;2023-07-30T14:56:09;7.05;;;1.45;;
16579;SDS011;8402;51.466;6.806;2023-07-30T14:58:42;8.18;;;1.70;;
16579;SDS011;8402;51.466;6.806;2023-07-30T15:01:12;5.05;;;1.58;;
16579;SDS011;8402;51.466;6.806;2023-07-30T15:03:42;4.13;;;1.33;;
16579;SDS011;8402;51.466;6.806;2023-07-30T15:06:12;7.35;;;1.30;;
16579;SDS011;8402;51.466;6.806;2023-07-30T15:08:42;3.58;;;1.10;;
16579;SDS011;8402;51.466;6.806;2023-07-30T15:11:12;5.13;;;1.30;;
16579;SDS011;8402;51.466;6.806;2023-07-30T15:13:44;4.50;;;1.85;;
16579;SDS011;8402;51.466;6.806;2023-07-30T15:16:24;5.30;;;1.50;;
16579;SDS011;8402;51.466;6.806;2023-07-30T15:18:54;6.30;;;1.45;;
16579;SDS011;8402;51.466;6.806;2023-07-30T15:21:25;4.72;;;1.58;;
16579;SDS011;8402;51.466;6.806;2023-07-30T15:23:55;4.47;;;1.20;;
16579;SDS011;8402;51.466;6.806;2023-07-30T15:26:26;5.00;;;1.33;;
16579;SDS011;8402;51.466;6.806;2023-07-30T15:28:58;5.22;;;1.30;;